Terminal Aerodrome Forecast
Issued by NWS

Home | Current Version | Previous Version | Graphics & Text | Print | Product List | Glossary On
Versions: 1 2 3 4 5 6 7 8 9 10 11 12 13 14 15 16 17 18 19
000
FTUS42 KMHX 191739
TAFISO
TAF
KISO 191739Z 1918/2018 28005KT P6SM VCTS SCT250CB
     FM200000 VRB04KT P6SM SCT250
     FM200600 VRB03KT 3SM BR FEW250
     FM201200 VRB03KT P6SM SCT250
      AMD LTD TO CLD VIS AND WIND=

USA.gov is the U.S. government's official web portal to all federal, state and local government web resources and services.